sensor_id;sensor_type;location;lat;lon;timestamp;P1;durP1;ratioP1;P2;durP2;ratioP2
22030;SDS011;11179;52.106;21.024;2022-08-25T00:02:12;10.07;;;3.67;;
22030;SDS011;11179;52.106;21.024;2022-08-25T00:04:38;13.67;;;4.70;;
22030;SDS011;11179;52.106;21.024;2022-08-25T00:07:04;10.40;;;3.80;;
22030;SDS011;11179;52.106;21.024;2022-08-25T00:09:30;10.50;;;4.30;;
22030;SDS011;11179;52.106;21.024;2022-08-25T00:11:58;10.80;;;3.23;;
22030;SDS011;11179;52.106;21.024;2022-08-25T00:14:26;26.00;;;4.17;;
22030;SDS011;11179;52.106;21.024;2022-08-25T00:16:53;12.70;;;3.43;;
22030;SDS011;11179;52.106;21.024;2022-08-25T00:19:21;18.70;;;4.30;;
22030;SDS011;11179;52.106;21.024;2022-08-25T00:21:48;16.97;;;3.83;;
22030;SDS011;11179;52.106;21.024;2022-08-25T00:24:15;16.03;;;4.00;;
22030;SDS011;11179;52.106;21.024;2022-08-25T00:26:42;16.20;;;5.00;;
22030;SDS011;11179;52.106;21.024;2022-08-25T00:29:11;11.60;;;3.33;;
22030;SDS011;11179;52.106;21.024;2022-08-25T00:31:37;16.20;;;4.30;;
22030;SDS011;11179;52.106;21.024;2022-08-25T00:34:04;14.03;;;3.50;;
22030;SDS011;11179;52.106;21.024;2022-08-25T00:36:32;12.90;;;3.77;;
22030;SDS011;11179;52.106;21.024;2022-08-25T00:38:58;13.77;;;3.70;;
22030;SDS011;11179;52.106;21.024;2022-08-25T00:41:24;15.20;;;4.00;;
22030;SDS011;11179;52.106;21.024;2022-08-25T00:43:52;13.67;;;3.90;;
22030;SDS011;11179;52.106;21.024;2022-08-25T00:46:22;17.27;;;4.03;;
22030;SDS011;11179;52.106;21.024;2022-08-25T00:48:52;19.40;;;3.87;;
22030;SDS011;11179;52.106;21.024;2022-08-25T00:51:34;15.30;;;4.33;;
22030;SDS011;11179;52.106;21.024;2022-08-25T00:54:02;14.97;;;4.20;;
22030;SDS011;11179;52.106;21.024;2022-08-25T00:56:29;11.60;;;4.20;;
22030;SDS011;11179;52.106;21.024;2022-08-25T00:58:56;12.60;;;3.30;;
22030;SDS011;11179;52.106;21.024;2022-08-25T01:01:23;16.37;;;4.10;;
22030;SDS011;11179;52.106;21.024;2022-08-25T01:03:49;17.83;;;4.30;;
22030;SDS011;11179;52.106;21.024;2022-08-25T01:06:15;17.83;;;3.80;;
22030;SDS011;11179;52.106;21.024;2022-08-25T01:08:41;12.63;;;3.70;;
22030;SDS011;11179;52.106;21.024;2022-08-25T01:11:07;11.43;;;4.77;;
22030;SDS011;11179;52.106;21.024;2022-08-25T01:13:36;13.50;;;3.60;;
22030;SDS011;11179;52.106;21.024;2022-08-25T01:16:04;13.83;;;3.97;;
22030;SDS011;11179;52.106;21.024;2022-08-25T01:18:41;12.60;;;4.10;;
22030;SDS011;11179;52.106;21.024;2022-08-25T01:21:08;13.23;;;3.80;;
22030;SDS011;11179;52.106;21.024;2022-08-25T01:23:34;19.20;;;4.57;;
22030;SDS011;11179;52.106;21.024;2022-08-25T01:26:11;15.07;;;5.50;;
22030;SDS011;11179;52.106;21.024;2022-08-25T01:28:42;20.60;;;5.20;;
22030;SDS011;11179;52.106;21.024;2022-08-25T01:31:28;12.73;;;4.23;;
22030;SDS011;11179;52.106;21.024;2022-08-25T01:33:55;14.30;;;5.20;;
22030;SDS011;11179;52.106;21.024;2022-08-25T01:36:21;21.83;;;5.47;;
22030;SDS011;11179;52.106;21.024;2022-08-25T01:38:47;22.93;;;6.70;;
22030;SDS011;11179;52.106;21.024;2022-08-25T01:41:15;19.87;;;5.10;;
22030;SDS011;11179;52.106;21.024;2022-08-25T01:43:45;19.87;;;4.90;;
22030;SDS011;11179;52.106;21.024;2022-08-25T01:46:10;22.00;;;4.63;;
22030;SDS011;11179;52.106;21.024;2022-08-25T01:48:35;16.90;;;4.57;;
22030;SDS011;11179;52.106;21.024;2022-08-25T01:51:01;17.87;;;5.10;;
22030;SDS011;11179;52.106;21.024;2022-08-25T01:53:30;20.40;;;4.57;;
22030;SDS011;11179;52.106;21.024;2022-08-25T01:55:56;14.40;;;5.10;;
22030;SDS011;11179;52.106;21.024;2022-08-25T01:58:30;22.00;;;6.43;;
22030;SDS011;11179;52.106;21.024;2022-08-25T02:00:59;20.07;;;6.37;;
22030;SDS011;11179;52.106;21.024;2022-08-25T02:03:28;14.60;;;5.13;;
22030;SDS011;11179;52.106;21.024;2022-08-25T02:05:55;23.63;;;6.30;;
22030;SDS011;11179;52.106;21.024;2022-08-25T02:08:21;19.73;;;6.10;;
22030;SDS011;11179;52.106;21.024;2022-08-25T02:10:47;22.13;;;5.80;;
22030;SDS011;11179;52.106;21.024;2022-08-25T02:13:13;15.93;;;5.73;;
22030;SDS011;11179;52.106;21.024;2022-08-25T02:15:40;28.77;;;6.07;;
22030;SDS011;11179;52.106;21.024;2022-08-25T02:18:07;16.10;;;5.27;;
22030;SDS011;11179;52.106;21.024;2022-08-25T02:20:32;23.30;;;6.03;;
22030;SDS011;11179;52.106;21.024;2022-08-25T02:22:58;23.73;;;5.70;;
22030;SDS011;11179;52.106;21.024;2022-08-25T02:25:23;20.73;;;6.00;;
22030;SDS011;11179;52.106;21.024;2022-08-25T02:27:49;19.57;;;6.20;;
22030;SDS011;11179;52.106;21.024;2022-08-25T02:30:15;20.83;;;5.80;;
22030;SDS011;11179;52.106;21.024;2022-08-25T02:32:41;16.93;;;6.07;;
22030;SDS011;11179;52.106;21.024;2022-08-25T02:35:07;25.63;;;6.63;;
22030;SDS011;11179;52.106;21.024;2022-08-25T02:37:33;15.03;;;6.33;;
22030;SDS011;11179;52.106;21.024;2022-08-25T02:39:59;22.33;;;7.07;;
22030;SDS011;11179;52.106;21.024;2022-08-25T02:42:25;16.77;;;6.50;;
22030;SDS011;11179;52.106;21.024;2022-08-25T02:44:51;19.20;;;5.77;;
22030;SDS011;11179;52.106;21.024;2022-08-25T02:47:17;20.93;;;6.00;;
22030;SDS011;11179;52.106;21.024;2022-08-25T02:49:43;19.63;;;5.60;;
22030;SDS011;11179;52.106;21.024;2022-08-25T02:52:09;21.80;;;5.63;;
22030;SDS011;11179;52.106;21.024;2022-08-25T02:54:34;19.13;;;5.70;;
22030;SDS011;11179;52.106;21.024;2022-08-25T02:57:00;16.23;;;5.90;;
22030;SDS011;11179;52.106;21.024;2022-08-25T02:59:26;20.63;;;5.37;;
22030;SDS011;11179;52.106;21.024;2022-08-25T03:01:52;20.40;;;6.27;;
22030;SDS011;11179;52.106;21.024;2022-08-25T03:04:17;14.73;;;6.60;;
22030;SDS011;11179;52.106;21.024;2022-08-25T03:06:42;17.90;;;7.13;;
22030;SDS011;11179;52.106;21.024;2022-08-25T03:09:08;14.83;;;5.80;;
22030;SDS011;11179;52.106;21.024;2022-08-25T03:11:34;24.33;;;6.70;;
22030;SDS011;11179;52.106;21.024;2022-08-25T03:14:02;23.03;;;5.77;;
22030;SDS011;11179;52.106;21.024;2022-08-25T03:16:28;20.77;;;6.80;;
22030;SDS011;11179;52.106;21.024;2022-08-25T03:18:54;23.47;;;6.60;;
22030;SDS011;11179;52.106;21.024;2022-08-25T03:21:19;24.67;;;6.60;;
22030;SDS011;11179;52.106;21.024;2022-08-25T03:23:45;20.67;;;5.80;;
22030;SDS011;11179;52.106;21.024;2022-08-25T03:26:10;24.43;;;6.87;;
22030;SDS011;11179;52.106;21.024;2022-08-25T03:28:55;25.77;;;6.30;;
22030;SDS011;11179;52.106;21.024;2022-08-25T03:31:21;24.13;;;7.53;;
22030;SDS011;11179;52.106;21.024;2022-08-25T03:33:47;12.70;;;5.50;;
22030;SDS011;11179;52.106;21.024;2022-08-25T03:36:13;30.50;;;6.87;;
22030;SDS011;11179;52.106;21.024;2022-08-25T03:38:39;23.50;;;6.10;;
22030;SDS011;11179;52.106;21.024;2022-08-25T03:41:12;28.77;;;5.60;;
22030;SDS011;11179;52.106;21.024;2022-08-25T03:43:46;28.80;;;6.50;;
22030;SDS011;11179;52.106;21.024;2022-08-25T03:46:16;25.83;;;6.60;;
22030;SDS011;11179;52.106;21.024;2022-08-25T03:48:45;47.53;;;8.90;;
22030;SDS011;11179;52.106;21.024;2022-08-25T03:51:10;22.83;;;7.07;;
22030;SDS011;11179;52.106;21.024;2022-08-25T03:53:36;21.83;;;6.43;;
22030;SDS011;11179;52.106;21.024;2022-08-25T03:56:01;23.43;;;7.20;;
22030;SDS011;11179;52.106;21.024;2022-08-25T03:58:27;24.83;;;6.90;;
22030;SDS011;11179;52.106;21.024;2022-08-25T04:00:52;20.60;;;7.67;;
22030;SDS011;11179;52.106;21.024;2022-08-25T04:03:18;34.20;;;8.30;;
22030;SDS011;11179;52.106;21.024;2022-08-25T04:05:44;19.13;;;7.57;;
22030;SDS011;11179;52.106;21.024;2022-08-25T04:08:10;29.73;;;8.30;;
22030;SDS011;11179;52.106;21.024;2022-08-25T04:10:35;27.13;;;7.53;;
22030;SDS011;11179;52.106;21.024;2022-08-25T04:13:01;20.20;;;7.57;;
22030;SDS011;11179;52.106;21.024;2022-08-25T04:15:26;24.93;;;8.10;;
22030;SDS011;11179;52.106;21.024;2022-08-25T04:17:52;22.63;;;6.57;;
22030;SDS011;11179;52.106;21.024;2022-08-25T04:20:17;24.67;;;7.20;;
22030;SDS011;11179;52.106;21.024;2022-08-25T04:22:42;16.90;;;7.90;;
22030;SDS011;11179;52.106;21.024;2022-08-25T04:25:08;23.80;;;8.17;;
22030;SDS011;11179;52.106;21.024;2022-08-25T04:27:34;28.00;;;8.53;;
22030;SDS011;11179;52.106;21.024;2022-08-25T04:30:00;33.37;;;9.00;;
22030;SDS011;11179;52.106;21.024;2022-08-25T04:32:26;27.93;;;7.13;;
22030;SDS011;11179;52.106;21.024;2022-08-25T04:34:51;35.40;;;8.57;;
22030;SDS011;11179;52.106;21.024;2022-08-25T04:37:17;32.33;;;7.67;;
22030;SDS011;11179;52.106;21.024;2022-08-25T04:39:42;28.07;;;7.97;;
22030;SDS011;11179;52.106;21.024;2022-08-25T04:42:08;21.23;;;7.80;;
22030;SDS011;11179;52.106;21.024;2022-08-25T04:44:33;30.53;;;7.23;;
22030;SDS011;11179;52.106;21.024;2022-08-25T04:46:59;31.50;;;7.03;;
22030;SDS011;11179;52.106;21.024;2022-08-25T04:49:24;33.40;;;8.90;;
22030;SDS011;11179;52.106;21.024;2022-08-25T04:51:50;17.50;;;7.20;;
22030;SDS011;11179;52.106;21.024;2022-08-25T04:54:16;25.10;;;7.60;;
22030;SDS011;11179;52.106;21.024;2022-08-25T04:56:45;33.77;;;7.73;;
22030;SDS011;11179;52.106;21.024;2022-08-25T04:59:12;33.03;;;8.40;;
22030;SDS011;11179;52.106;21.024;2022-08-25T05:01:39;32.07;;;8.00;;
22030;SDS011;11179;52.106;21.024;2022-08-25T05:04:07;32.33;;;7.07;;
22030;SDS011;11179;52.106;21.024;2022-08-25T05:06:34;32.47;;;7.77;;
22030;SDS011;11179;52.106;21.024;2022-08-25T05:09:01;26.33;;;7.40;;
22030;SDS011;11179;52.106;21.024;2022-08-25T05:11:28;32.43;;;7.03;;
22030;SDS011;11179;52.106;21.024;2022-08-25T05:13:54;36.53;;;8.77;;
22030;SDS011;11179;52.106;21.024;2022-08-25T05:16:21;27.00;;;8.80;;
22030;SDS011;11179;52.106;21.024;2022-08-25T05:18:48;34.00;;;7.53;;
22030;SDS011;11179;52.106;21.024;2022-08-25T05:21:14;41.80;;;8.60;;
22030;SDS011;11179;52.106;21.024;2022-08-25T05:23:42;29.53;;;7.87;;
22030;SDS011;11179;52.106;21.024;2022-08-25T05:26:11;37.87;;;7.63;;
22030;SDS011;11179;52.106;21.024;2022-08-25T05:28:41;34.43;;;8.80;;
22030;SDS011;11179;52.106;21.024;2022-08-25T05:31:07;20.13;;;7.60;;
22030;SDS011;11179;52.106;21.024;2022-08-25T05:33:35;25.43;;;8.23;;
22030;SDS011;11179;52.106;21.024;2022-08-25T05:36:02;28.27;;;8.43;;
22030;SDS011;11179;52.106;21.024;2022-08-25T05:38:29;30.40;;;7.53;;
22030;SDS011;11179;52.106;21.024;2022-08-25T05:40:57;36.17;;;8.30;;
22030;SDS011;11179;52.106;21.024;2022-08-25T05:43:24;29.07;;;7.33;;
22030;SDS011;11179;52.106;21.024;2022-08-25T05:45:52;38.67;;;8.43;;
22030;SDS011;11179;52.106;21.024;2022-08-25T05:48:18;20.47;;;7.00;;
22030;SDS011;11179;52.106;21.024;2022-08-25T05:50:49;26.40;;;8.67;;
22030;SDS011;11179;52.106;21.024;2022-08-25T05:53:22;36.50;;;8.33;;
22030;SDS011;11179;52.106;21.024;2022-08-25T05:55:50;41.67;;;8.60;;
22030;SDS011;11179;52.106;21.024;2022-08-25T05:58:18;33.37;;;7.57;;
22030;SDS011;11179;52.106;21.024;2022-08-25T06:03:13;24.33;;;7.03;;
22030;SDS011;11179;52.106;21.024;2022-08-25T06:05:38;24.23;;;7.20;;
22030;SDS011;11179;52.106;21.024;2022-08-25T06:08:04;24.40;;;7.63;;
22030;SDS011;11179;52.106;21.024;2022-08-25T06:10:30;24.57;;;8.53;;
22030;SDS011;11179;52.106;21.024;2022-08-25T06:12:55;28.50;;;9.00;;
22030;SDS011;11179;52.106;21.024;2022-08-25T06:15:22;24.97;;;7.17;;
22030;SDS011;11179;52.106;21.024;2022-08-25T06:17:48;32.53;;;8.63;;
22030;SDS011;11179;52.106;21.024;2022-08-25T06:20:16;33.60;;;8.93;;
22030;SDS011;11179;52.106;21.024;2022-08-25T06:22:44;34.57;;;8.93;;
22030;SDS011;11179;52.106;21.024;2022-08-25T06:25:11;36.27;;;9.20;;
22030;SDS011;11179;52.106;21.024;2022-08-25T06:27:38;33.03;;;9.13;;
22030;SDS011;11179;52.106;21.024;2022-08-25T06:30:05;33.30;;;10.13;;
22030;SDS011;11179;52.106;21.024;2022-08-25T06:32:33;23.20;;;7.03;;
22030;SDS011;11179;52.106;21.024;2022-08-25T06:35:04;22.43;;;7.87;;
22030;SDS011;11179;52.106;21.024;2022-08-25T06:37:31;23.60;;;7.20;;
22030;SDS011;11179;52.106;21.024;2022-08-25T06:39:57;31.20;;;9.03;;
22030;SDS011;11179;52.106;21.024;2022-08-25T06:42:23;26.97;;;7.90;;
22030;SDS011;11179;52.106;21.024;2022-08-25T06:44:48;28.30;;;7.73;;
22030;SDS011;11179;52.106;21.024;2022-08-25T06:47:13;31.33;;;9.20;;
22030;SDS011;11179;52.106;21.024;2022-08-25T06:49:40;30.47;;;7.30;;
22030;SDS011;11179;52.106;21.024;2022-08-25T06:52:06;31.73;;;7.97;;
22030;SDS011;11179;52.106;21.024;2022-08-25T06:54:32;30.90;;;7.43;;
22030;SDS011;11179;52.106;21.024;2022-08-25T06:56:57;18.53;;;7.27;;
22030;SDS011;11179;52.106;21.024;2022-08-25T06:59:23;21.23;;;7.87;;
22030;SDS011;11179;52.106;21.024;2022-08-25T07:01:49;26.60;;;8.70;;
22030;SDS011;11179;52.106;21.024;2022-08-25T07:04:14;28.53;;;7.67;;
22030;SDS011;11179;52.106;21.024;2022-08-25T07:06:39;29.20;;;7.70;;
22030;SDS011;11179;52.106;21.024;2022-08-25T07:09:06;23.60;;;7.00;;
22030;SDS011;11179;52.106;21.024;2022-08-25T07:11:33;29.20;;;8.10;;
22030;SDS011;11179;52.106;21.024;2022-08-25T07:14:02;25.70;;;7.23;;
22030;SDS011;11179;52.106;21.024;2022-08-25T07:16:30;26.40;;;7.53;;
22030;SDS011;11179;52.106;21.024;2022-08-25T07:18:56;29.00;;;7.60;;
22030;SDS011;11179;52.106;21.024;2022-08-25T07:21:23;27.00;;;7.40;;
22030;SDS011;11179;52.106;21.024;2022-08-25T07:23:50;22.87;;;8.20;;
22030;SDS011;11179;52.106;21.024;2022-08-25T07:26:18;24.13;;;6.20;;
22030;SDS011;11179;52.106;21.024;2022-08-25T07:28:46;27.17;;;7.50;;
22030;SDS011;11179;52.106;21.024;2022-08-25T07:31:11;26.30;;;6.73;;
22030;SDS011;11179;52.106;21.024;2022-08-25T07:33:37;22.23;;;7.10;;
22030;SDS011;11179;52.106;21.024;2022-08-25T07:36:23;23.13;;;7.50;;
22030;SDS011;11179;52.106;21.024;2022-08-25T07:38:49;25.07;;;7.70;;
22030;SDS011;11179;52.106;21.024;2022-08-25T07:41:14;18.90;;;6.57;;
22030;SDS011;11179;52.106;21.024;2022-08-25T07:43:39;30.23;;;8.13;;
22030;SDS011;11179;52.106;21.024;2022-08-25T07:46:05;19.80;;;5.90;;
22030;SDS011;11179;52.106;21.024;2022-08-25T07:48:31;18.20;;;7.73;;
22030;SDS011;11179;52.106;21.024;2022-08-25T07:50:56;27.63;;;7.53;;
22030;SDS011;11179;52.106;21.024;2022-08-25T07:53:22;25.17;;;8.20;;
22030;SDS011;11179;52.106;21.024;2022-08-25T07:55:47;25.33;;;7.80;;
22030;SDS011;11179;52.106;21.024;2022-08-25T07:58:12;19.93;;;7.63;;
22030;SDS011;11179;52.106;21.024;2022-08-25T08:03:26;21.30;;;7.27;;
22030;SDS011;11179;52.106;21.024;2022-08-25T08:05:53;30.30;;;8.03;;
22030;SDS011;11179;52.106;21.024;2022-08-25T08:08:20;23.80;;;6.67;;
22030;SDS011;11179;52.106;21.024;2022-08-25T08:10:46;19.57;;;6.77;;
22030;SDS011;11179;52.106;21.024;2022-08-25T08:13:12;17.67;;;6.87;;
22030;SDS011;11179;52.106;21.024;2022-08-25T08:15:40;28.03;;;8.20;;
22030;SDS011;11179;52.106;21.024;2022-08-25T08:18:06;21.23;;;7.07;;
22030;SDS011;11179;52.106;21.024;2022-08-25T08:20:32;24.00;;;7.70;;
22030;SDS011;11179;52.106;21.024;2022-08-25T08:22:58;19.60;;;7.00;;
22030;SDS011;11179;52.106;21.024;2022-08-25T08:25:24;26.33;;;7.53;;
22030;SDS011;11179;52.106;21.024;2022-08-25T08:27:49;31.23;;;6.93;;
22030;SDS011;11179;52.106;21.024;2022-08-25T08:30:15;16.87;;;6.50;;
22030;SDS011;11179;52.106;21.024;2022-08-25T08:32:40;25.30;;;7.47;;
22030;SDS011;11179;52.106;21.024;2022-08-25T08:35:06;30.07;;;6.50;;
22030;SDS011;11179;52.106;21.024;2022-08-25T08:37:32;46.83;;;8.33;;
22030;SDS011;11179;52.106;21.024;2022-08-25T08:39:57;21.93;;;7.80;;
22030;SDS011;11179;52.106;21.024;2022-08-25T08:42:40;21.27;;;7.00;;
22030;SDS011;11179;52.106;21.024;2022-08-25T08:45:33;19.80;;;6.13;;
22030;SDS011;11179;52.106;21.024;2022-08-25T08:51:11;19.50;;;7.67;;
22030;SDS011;11179;52.106;21.024;2022-08-25T08:56:19;24.80;;;7.73;;
22030;SDS011;11179;52.106;21.024;2022-08-25T08:59:00;18.87;;;6.90;;
22030;SDS011;11179;52.106;21.024;2022-08-25T09:04:13;25.10;;;7.23;;
22030;SDS011;11179;52.106;21.024;2022-08-25T09:06:45;28.93;;;7.40;;
22030;SDS011;11179;52.106;21.024;2022-08-25T09:09:15;26.30;;;7.43;;
22030;SDS011;11179;52.106;21.024;2022-08-25T09:11:49;16.93;;;6.57;;
22030;SDS011;11179;52.106;21.024;2022-08-25T09:20:00;20.60;;;6.50;;
22030;SDS011;11179;52.106;21.024;2022-08-25T09:33:28;17.67;;;5.63;;
22030;SDS011;11179;52.106;21.024;2022-08-25T09:35:56;22.90;;;6.70;;
22030;SDS011;11179;52.106;21.024;2022-08-25T09:38:22;20.63;;;6.37;;
22030;SDS011;11179;52.106;21.024;2022-08-25T09:40:50;16.83;;;5.60;;
22030;SDS011;11179;52.106;21.024;2022-08-25T09:45:48;20.37;;;6.33;;
22030;SDS011;11179;52.106;21.024;2022-08-25T09:48:27;20.23;;;6.40;;
22030;SDS011;11179;52.106;21.024;2022-08-25T09:50:59;22.80;;;6.17;;
22030;SDS011;11179;52.106;21.024;2022-08-25T09:53:34;28.67;;;6.83;;
22030;SDS011;11179;52.106;21.024;2022-08-25T09:56:01;19.90;;;5.83;;
22030;SDS011;11179;52.106;21.024;2022-08-25T09:58:29;15.77;;;5.63;;
22030;SDS011;11179;52.106;21.024;2022-08-25T10:00:59;14.77;;;4.70;;
22030;SDS011;11179;52.106;21.024;2022-08-25T10:03:28;14.53;;;4.80;;
22030;SDS011;11179;52.106;21.024;2022-08-25T10:08:33;18.33;;;5.27;;
22030;SDS011;11179;52.106;21.024;2022-08-25T10:11:06;23.80;;;5.50;;
22030;SDS011;11179;52.106;21.024;2022-08-25T10:19:00;15.97;;;4.63;;
22030;SDS011;11179;52.106;21.024;2022-08-25T10:21:32;15.20;;;4.10;;
22030;SDS011;11179;52.106;21.024;2022-08-25T10:23:58;14.53;;;5.87;;
22030;SDS011;11179;52.106;21.024;2022-08-25T10:42:28;11.73;;;4.60;;
22030;SDS011;11179;52.106;21.024;2022-08-25T10:50:39;15.57;;;4.03;;
22030;SDS011;11179;52.106;21.024;2022-08-25T10:53:28;10.60;;;4.20;;
22030;SDS011;11179;52.106;21.024;2022-08-25T11:06:55;13.20;;;4.10;;
22030;SDS011;11179;52.106;21.024;2022-08-25T11:09:29;22.43;;;4.17;;
22030;SDS011;11179;52.106;21.024;2022-08-25T11:12:07;15.57;;;4.30;;
22030;SDS011;11179;52.106;21.024;2022-08-25T11:14:55;28.13;;;4.87;;
22030;SDS011;11179;52.106;21.024;2022-08-25T11:17:25;7.27;;;3.13;;
22030;SDS011;11179;52.106;21.024;2022-08-25T11:20:03;8.37;;;3.60;;
22030;SDS011;11179;52.106;21.024;2022-08-25T11:22:38;12.20;;;3.00;;
22030;SDS011;11179;52.106;21.024;2022-08-25T11:30:36;9.53;;;3.07;;
22030;SDS011;11179;52.106;21.024;2022-08-25T11:33:03;14.40;;;3.73;;
22030;SDS011;11179;52.106;21.024;2022-08-25T11:35:39;10.93;;;3.53;;
22030;SDS011;11179;52.106;21.024;2022-08-25T11:46:25;12.00;;;3.23;;
22030;SDS011;11179;52.106;21.024;2022-08-25T11:51:48;8.73;;;3.40;;
22030;SDS011;11179;52.106;21.024;2022-08-25T11:54:34;7.40;;;3.40;;
22030;SDS011;11179;52.106;21.024;2022-08-25T12:03:07;13.40;;;3.40;;
22030;SDS011;11179;52.106;21.024;2022-08-25T12:08:01;13.80;;;4.17;;
22030;SDS011;11179;52.106;21.024;2022-08-25T12:16:04;16.30;;;4.63;;
22030;SDS011;11179;52.106;21.024;2022-08-25T12:26:24;13.53;;;4.37;;
22030;SDS011;11179;52.106;21.024;2022-08-25T12:31:45;11.00;;;3.90;;
22030;SDS011;11179;52.106;21.024;2022-08-25T12:37:04;8.73;;;3.77;;
22030;SDS011;11179;52.106;21.024;2022-08-25T12:39:42;10.87;;;4.30;;
22030;SDS011;11179;52.106;21.024;2022-08-25T12:42:29;12.20;;;4.30;;
22030;SDS011;11179;52.106;21.024;2022-08-25T12:47:50;16.80;;;3.70;;
22030;SDS011;11179;52.106;21.024;2022-08-25T12:56:15;13.37;;;3.53;;
22030;SDS011;11179;52.106;21.024;2022-08-25T13:06:44;9.00;;;3.60;;
22030;SDS011;11179;52.106;21.024;2022-08-25T13:12:16;11.10;;;3.40;;
22030;SDS011;11179;52.106;21.024;2022-08-25T13:14:51;12.07;;;3.20;;
22030;SDS011;11179;52.106;21.024;2022-08-25T13:17:34;9.07;;;3.73;;
22030;SDS011;11179;52.106;21.024;2022-08-25T13:20:21;10.83;;;3.40;;
22030;SDS011;11179;52.106;21.024;2022-08-25T13:22:49;21.43;;;4.70;;
22030;SDS011;11179;52.106;21.024;2022-08-25T13:25:18;9.33;;;3.50;;
22030;SDS011;11179;52.106;21.024;2022-08-25T13:27:50;12.00;;;3.97;;
22030;SDS011;11179;52.106;21.024;2022-08-25T13:30:24;9.90;;;3.57;;
22030;SDS011;11179;52.106;21.024;2022-08-25T13:32:55;17.67;;;3.50;;
22030;SDS011;11179;52.106;21.024;2022-08-25T13:35:23;7.47;;;3.30;;
22030;SDS011;11179;52.106;21.024;2022-08-25T13:37:51;14.70;;;4.20;;
22030;SDS011;11179;52.106;21.024;2022-08-25T13:40:27;24.80;;;6.80;;
22030;SDS011;11179;52.106;21.024;2022-08-25T13:43:14;8.40;;;3.93;;
22030;SDS011;11179;52.106;21.024;2022-08-25T13:45:44;6.73;;;3.50;;
22030;SDS011;11179;52.106;21.024;2022-08-25T13:48:12;13.43;;;4.20;;
22030;SDS011;11179;52.106;21.024;2022-08-25T13:50:39;9.03;;;3.57;;
22030;SDS011;11179;52.106;21.024;2022-08-25T13:53:13;9.80;;;3.80;;
22030;SDS011;11179;52.106;21.024;2022-08-25T13:55:56;14.13;;;4.07;;
22030;SDS011;11179;52.106;21.024;2022-08-25T13:58:28;16.57;;;5.27;;
22030;SDS011;11179;52.106;21.024;2022-08-25T14:01:08;11.87;;;4.97;;
22030;SDS011;11179;52.106;21.024;2022-08-25T14:03:39;9.20;;;3.97;;
22030;SDS011;11179;52.106;21.024;2022-08-25T14:06:30;30.30;;;5.80;;
22030;SDS011;11179;52.106;21.024;2022-08-25T14:14:01;12.50;;;3.87;;
22030;SDS011;11179;52.106;21.024;2022-08-25T14:16:30;24.77;;;5.67;;
22030;SDS011;11179;52.106;21.024;2022-08-25T14:18:59;15.93;;;6.77;;
22030;SDS011;11179;52.106;21.024;2022-08-25T14:21:29;8.03;;;3.27;;
22030;SDS011;11179;52.106;21.024;2022-08-25T14:23:57;12.47;;;3.40;;
22030;SDS011;11179;52.106;21.024;2022-08-25T14:26:23;13.00;;;3.90;;
22030;SDS011;11179;52.106;21.024;2022-08-25T14:28:49;11.13;;;3.80;;
22030;SDS011;11179;52.106;21.024;2022-08-25T14:31:24;14.27;;;6.63;;
22030;SDS011;11179;52.106;21.024;2022-08-25T14:33:59;12.90;;;5.30;;
22030;SDS011;11179;52.106;21.024;2022-08-25T14:36:27;11.20;;;3.90;;
22030;SDS011;11179;52.106;21.024;2022-08-25T14:38:53;15.00;;;3.83;;
22030;SDS011;11179;52.106;21.024;2022-08-25T14:41:19;6.83;;;3.00;;
22030;SDS011;11179;52.106;21.024;2022-08-25T14:43:45;8.97;;;2.93;;
22030;SDS011;11179;52.106;21.024;2022-08-25T14:46:17;9.97;;;3.00;;
22030;SDS011;11179;52.106;21.024;2022-08-25T14:48:45;22.77;;;3.17;;
22030;SDS011;11179;52.106;21.024;2022-08-25T14:51:14;15.30;;;3.00;;
22030;SDS011;11179;52.106;21.024;2022-08-25T14:53:40;9.40;;;2.87;;
22030;SDS011;11179;52.106;21.024;2022-08-25T14:56:07;8.10;;;3.00;;
22030;SDS011;11179;52.106;21.024;2022-08-25T14:58:33;6.53;;;3.10;;
22030;SDS011;11179;52.106;21.024;2022-08-25T15:00:58;5.90;;;2.90;;
22030;SDS011;11179;52.106;21.024;2022-08-25T15:03:28;8.63;;;2.77;;
22030;SDS011;11179;52.106;21.024;2022-08-25T15:05:56;8.97;;;3.23;;
22030;SDS011;11179;52.106;21.024;2022-08-25T15:08:22;9.87;;;2.90;;
22030;SDS011;11179;52.106;21.024;2022-08-25T15:11:05;13.03;;;3.80;;
22030;SDS011;11179;52.106;21.024;2022-08-25T15:13:31;32.50;;;3.90;;
22030;SDS011;11179;52.106;21.024;2022-08-25T15:15:57;8.10;;;2.73;;
22030;SDS011;11179;52.106;21.024;2022-08-25T15:18:23;11.97;;;2.70;;
22030;SDS011;11179;52.106;21.024;2022-08-25T15:20:49;10.93;;;3.20;;
22030;SDS011;11179;52.106;21.024;2022-08-25T15:23:16;7.70;;;3.20;;
22030;SDS011;11179;52.106;21.024;2022-08-25T15:25:42;10.13;;;3.17;;
22030;SDS011;11179;52.106;21.024;2022-08-25T15:28:10;14.07;;;4.53;;
22030;SDS011;11179;52.106;21.024;2022-08-25T15:30:36;10.00;;;3.20;;
22030;SDS011;11179;52.106;21.024;2022-08-25T15:33:02;14.00;;;3.07;;
22030;SDS011;11179;52.106;21.024;2022-08-25T15:35:27;8.93;;;2.67;;
22030;SDS011;11179;52.106;21.024;2022-08-25T15:37:53;9.43;;;2.93;;
22030;SDS011;11179;52.106;21.024;2022-08-25T15:40:18;18.73;;;3.80;;
22030;SDS011;11179;52.106;21.024;2022-08-25T15:42:44;10.63;;;2.97;;
22030;SDS011;11179;52.106;21.024;2022-08-25T15:45:09;13.50;;;3.20;;
22030;SDS011;11179;52.106;21.024;2022-08-25T15:47:35;5.60;;;2.50;;
22030;SDS011;11179;52.106;21.024;2022-08-25T15:50:19;11.50;;;3.10;;
22030;SDS011;11179;52.106;21.024;2022-08-25T15:52:45;6.80;;;2.53;;
22030;SDS011;11179;52.106;21.024;2022-08-25T15:55:11;13.93;;;3.40;;
22030;SDS011;11179;52.106;21.024;2022-08-25T15:57:37;7.80;;;3.13;;
22030;SDS011;11179;52.106;21.024;2022-08-25T16:00:04;11.63;;;3.23;;
22030;SDS011;11179;52.106;21.024;2022-08-25T16:02:31;13.00;;;3.17;;
22030;SDS011;11179;52.106;21.024;2022-08-25T16:04:58;15.20;;;3.17;;
22030;SDS011;11179;52.106;21.024;2022-08-25T16:07:25;10.70;;;3.00;;
22030;SDS011;11179;52.106;21.024;2022-08-25T16:09:54;8.13;;;2.77;;
22030;SDS011;11179;52.106;21.024;2022-08-25T16:12:20;8.90;;;3.23;;
22030;SDS011;11179;52.106;21.024;2022-08-25T16:14:46;13.00;;;3.10;;
22030;SDS011;11179;52.106;21.024;2022-08-25T16:17:11;10.03;;;2.90;;
22030;SDS011;11179;52.106;21.024;2022-08-25T16:19:38;14.70;;;3.33;;
22030;SDS011;11179;52.106;21.024;2022-08-25T16:22:04;10.93;;;2.87;;
22030;SDS011;11179;52.106;21.024;2022-08-25T16:24:30;13.13;;;3.07;;
22030;SDS011;11179;52.106;21.024;2022-08-25T16:26:55;10.87;;;3.00;;
22030;SDS011;11179;52.106;21.024;2022-08-25T16:29:28;9.63;;;2.60;;
22030;SDS011;11179;52.106;21.024;2022-08-25T16:31:55;8.07;;;2.73;;
22030;SDS011;11179;52.106;21.024;2022-08-25T16:34:22;13.80;;;2.40;;
22030;SDS011;11179;52.106;21.024;2022-08-25T16:36:49;7.50;;;2.57;;
22030;SDS011;11179;52.106;21.024;2022-08-25T16:39:15;6.90;;;2.77;;
22030;SDS011;11179;52.106;21.024;2022-08-25T16:41:40;5.23;;;2.83;;
22030;SDS011;11179;52.106;21.024;2022-08-25T16:44:05;10.30;;;2.80;;
22030;SDS011;11179;52.106;21.024;2022-08-25T16:46:31;7.43;;;2.60;;
22030;SDS011;11179;52.106;21.024;2022-08-25T16:49:01;9.57;;;2.80;;
22030;SDS011;11179;52.106;21.024;2022-08-25T16:51:28;7.67;;;2.33;;
22030;SDS011;11179;52.106;21.024;2022-08-25T16:53:54;11.07;;;2.60;;